sensor_id;sensor_type;location;lat;lon;timestamp;noise_LAeq;noise_LA_min;noise_LA_max;noise_LA01;noise_LA95
4048;Laerm;2038;51.728;6.674;2022-08-21T00:00:39;45.50;32.35;63.87;;
4048;Laerm;2038;51.728;6.674;2022-08-21T00:03:08;45.32;30.89;63.47;;
4048;Laerm;2038;51.728;6.674;2022-08-21T00:05:48;45.55;31.68;61.83;;
4048;Laerm;2038;51.728;6.674;2022-08-21T00:08:17;44.91;35.04;63.81;;
4048;Laerm;2038;51.728;6.674;2022-08-21T00:10:44;45.33;33.44;60.00;;
4048;Laerm;2038;51.728;6.674;2022-08-21T00:13:12;38.80;30.89;42.59;;
4048;Laerm;2038;51.728;6.674;2022-08-21T00:15:40;46.68;32.93;62.75;;
4048;Laerm;2038;51.728;6.674;2022-08-21T00:18:09;38.01;31.68;40.89;;
4048;Laerm;2038;51.728;6.674;2022-08-21T00:20:39;48.10;31.33;63.97;;
4048;Laerm;2038;51.728;6.674;2022-08-21T00:23:07;46.76;34.69;62.14;;
4048;Laerm;2038;51.728;6.674;2022-08-21T00:25:34;38.38;33.97;41.75;;
4048;Laerm;2038;51.728;6.674;2022-08-21T00:28:01;46.45;30.89;62.94;;
4048;Laerm;2038;51.728;6.674;2022-08-21T00:30:29;41.09;32.35;58.35;;
4048;Laerm;2038;51.728;6.674;2022-08-21T00:32:56;38.04;32.35;40.98;;
4048;Laerm;2038;51.728;6.674;2022-08-21T00:35:31;38.13;31.68;42.76;;
4048;Laerm;2038;51.728;6.674;2022-08-21T00:37:58;38.29;31.68;43.54;;
4048;Laerm;2038;51.728;6.674;2022-08-21T00:40:43;41.91;32.35;58.01;;
4048;Laerm;2038;51.728;6.674;2022-08-21T00:43:14;48.54;32.35;63.43;;
4048;Laerm;2038;51.728;6.674;2022-08-21T00:45:42;46.36;33.44;63.66;;
4048;Laerm;2038;51.728;6.674;2022-08-21T00:48:08;47.79;33.09;67.27;;
4048;Laerm;2038;51.728;6.674;2022-08-21T00:50:51;38.71;33.90;44.03;;
4048;Laerm;2038;51.728;6.674;2022-08-21T00:53:18;38.31;32.93;40.89;;
4048;Laerm;2038;51.728;6.674;2022-08-21T00:55:46;38.15;32.93;47.63;;
4048;Laerm;2038;51.728;6.674;2022-08-21T00:58:14;47.40;32.93;64.73;;
4048;Laerm;2038;51.728;6.674;2022-08-21T01:00:45;47.20;33.44;63.40;;
4048;Laerm;2038;51.728;6.674;2022-08-21T01:03:17;49.49;34.69;64.80;;
4048;Laerm;2038;51.728;6.674;2022-08-21T01:05:45;37.92;33.44;46.02;;
4048;Laerm;2038;51.728;6.674;2022-08-21T01:08:15;39.08;33.90;44.69;;
4048;Laerm;2038;51.728;6.674;2022-08-21T01:10:43;39.71;34.31;54.27;;
4048;Laerm;2038;51.728;6.674;2022-08-21T01:13:11;46.42;33.90;63.41;;
4048;Laerm;2038;51.728;6.674;2022-08-21T01:15:45;38.21;32.93;52.57;;
4048;Laerm;2038;51.728;6.674;2022-08-21T01:18:14;45.41;32.93;63.37;;
4048;Laerm;2038;51.728;6.674;2022-08-21T01:21:20;39.55;33.44;43.39;;
4048;Laerm;2038;51.728;6.674;2022-08-21T01:23:51;43.80;33.44;63.13;;
4048;Laerm;2038;51.728;6.674;2022-08-21T01:26:23;44.59;34.31;64.24;;
4048;Laerm;2038;51.728;6.674;2022-08-21T01:29:03;48.54;32.35;64.45;;
4048;Laerm;2038;51.728;6.674;2022-08-21T01:31:31;51.98;37.12;66.72;;
4048;Laerm;2038;51.728;6.674;2022-08-21T01:33:59;46.20;35.66;63.58;;
4048;Laerm;2038;51.728;6.674;2022-08-21T01:36:26;44.31;33.44;61.84;;
4048;Laerm;2038;51.728;6.674;2022-08-21T01:38:53;38.42;30.89;42.16;;
4048;Laerm;2038;51.728;6.674;2022-08-21T01:41:19;47.07;35.04;64.80;;
4048;Laerm;2038;51.728;6.674;2022-08-21T01:43:46;38.93;32.93;42.53;;
4048;Laerm;2038;51.728;6.674;2022-08-21T01:46:13;45.78;35.36;63.20;;
4048;Laerm;2038;51.728;6.674;2022-08-21T01:48:40;49.69;34.31;65.71;;
4048;Laerm;2038;51.728;6.674;2022-08-21T01:51:07;38.73;32.93;42.41;;
4048;Laerm;2038;51.728;6.674;2022-08-21T01:53:35;38.02;31.68;42.09;;
4048;Laerm;2038;51.728;6.674;2022-08-21T01:56:07;48.49;32.35;66.68;;
4048;Laerm;2038;51.728;6.674;2022-08-21T01:58:34;38.45;31.68;43.14;;
4048;Laerm;2038;51.728;6.674;2022-08-21T02:01:01;40.39;34.31;72.82;;
4048;Laerm;2038;51.728;6.674;2022-08-21T02:03:29;38.04;32.93;41.14;;
4048;Laerm;2038;51.728;6.674;2022-08-21T02:05:56;37.83;30.89;40.98;;
4048;Laerm;2038;51.728;6.674;2022-08-21T02:08:23;37.88;32.00;41.38;;
4048;Laerm;2038;51.728;6.674;2022-08-21T02:10:51;39.69;34.31;43.09;;
4048;Laerm;2038;51.728;6.674;2022-08-21T02:13:18;47.33;34.31;65.26;;
4048;Laerm;2038;51.728;6.674;2022-08-21T02:15:45;50.33;32.93;67.19;;
4048;Laerm;2038;51.728;6.674;2022-08-21T02:18:11;38.48;32.93;41.96;;
4048;Laerm;2038;51.728;6.674;2022-08-21T02:20:43;44.17;32.35;62.84;;
4048;Laerm;2038;51.728;6.674;2022-08-21T02:23:11;38.05;29.92;48.13;;
4048;Laerm;2038;51.728;6.674;2022-08-21T02:25:38;37.96;31.68;54.94;;
4048;Laerm;2038;51.728;6.674;2022-08-21T02:28:10;45.59;34.31;62.49;;
4048;Laerm;2038;51.728;6.674;2022-08-21T02:30:42;38.25;30.89;41.22;;
4048;Laerm;2038;51.728;6.674;2022-08-21T02:33:10;37.72;31.68;46.52;;
4048;Laerm;2038;51.728;6.674;2022-08-21T02:35:40;38.36;33.90;41.96;;
4048;Laerm;2038;51.728;6.674;2022-08-21T02:38:13;47.22;34.69;63.36;;
4048;Laerm;2038;51.728;6.674;2022-08-21T02:40:43;38.35;33.44;42.35;;
4048;Laerm;2038;51.728;6.674;2022-08-21T02:43:10;38.33;31.68;41.89;;
4048;Laerm;2038;51.728;6.674;2022-08-21T02:45:39;39.36;32.35;44.03;;
4048;Laerm;2038;51.728;6.674;2022-08-21T02:48:12;37.95;30.54;40.71;;
4048;Laerm;2038;51.728;6.674;2022-08-21T02:50:43;38.21;32.93;42.35;;
4048;Laerm;2038;51.728;6.674;2022-08-21T02:53:12;38.03;28.67;47.55;;
4048;Laerm;2038;51.728;6.674;2022-08-21T02:55:44;38.22;32.35;41.14;;
4048;Laerm;2038;51.728;6.674;2022-08-21T02:58:14;38.23;33.09;41.22;;
4048;Laerm;2038;51.728;6.674;2022-08-21T03:00:41;37.82;33.55;42.03;;
4048;Laerm;2038;51.728;6.674;2022-08-21T03:03:07;38.13;33.44;45.04;;
4048;Laerm;2038;51.728;6.674;2022-08-21T03:05:36;39.02;33.90;49.00;;
4048;Laerm;2038;51.728;6.674;2022-08-21T03:08:08;38.77;34.31;43.14;;
4048;Laerm;2038;51.728;6.674;2022-08-21T03:10:39;38.04;31.68;40.80;;
4048;Laerm;2038;51.728;6.674;2022-08-21T03:13:09;37.95;32.35;45.83;;
4048;Laerm;2038;51.728;6.674;2022-08-21T03:15:36;49.01;32.93;67.21;;
4048;Laerm;2038;51.728;6.674;2022-08-21T03:18:04;45.02;32.93;62.83;;
4048;Laerm;2038;51.728;6.674;2022-08-21T03:20:32;38.40;33.44;41.30;;
4048;Laerm;2038;51.728;6.674;2022-08-21T03:22:59;46.72;34.31;64.58;;
4048;Laerm;2038;51.728;6.674;2022-08-21T03:25:27;47.07;33.44;66.96;;
4048;Laerm;2038;51.728;6.674;2022-08-21T03:27:54;38.76;31.68;45.45;;
4048;Laerm;2038;51.728;6.674;2022-08-21T03:30:21;38.21;33.44;46.57;;
4048;Laerm;2038;51.728;6.674;2022-08-21T03:32:49;38.11;32.35;41.30;;
4048;Laerm;2038;51.728;6.674;2022-08-21T03:35:17;41.29;30.89;56.59;;
4048;Laerm;2038;51.728;6.674;2022-08-21T03:37:44;37.86;33.44;41.75;;
4048;Laerm;2038;51.728;6.674;2022-08-21T03:40:13;38.00;33.44;41.06;;
4048;Laerm;2038;51.728;6.674;2022-08-21T03:42:41;38.32;33.44;44.80;;
4048;Laerm;2038;51.728;6.674;2022-08-21T03:45:08;44.64;33.44;58.59;;
4048;Laerm;2038;51.728;6.674;2022-08-21T03:47:35;40.33;32.35;56.83;;
4048;Laerm;2038;51.728;6.674;2022-08-21T03:50:04;43.44;34.31;60.73;;
4048;Laerm;2038;51.728;6.674;2022-08-21T03:52:30;39.96;29.92;63.47;;
4048;Laerm;2038;51.728;6.674;2022-08-21T03:54:56;42.00;32.35;54.79;;
4048;Laerm;2038;51.728;6.674;2022-08-21T03:57:23;49.02;33.44;66.14;;
4048;Laerm;2038;51.728;6.674;2022-08-21T03:59:49;39.11;33.44;57.87;;
4048;Laerm;2038;51.728;6.674;2022-08-21T04:02:20;39.26;32.93;54.68;;
4048;Laerm;2038;51.728;6.674;2022-08-21T04:04:47;42.02;32.58;59.37;;
4048;Laerm;2038;51.728;6.674;2022-08-21T04:07:13;42.27;32.35;63.10;;
4048;Laerm;2038;51.728;6.674;2022-08-21T04:09:39;39.70;30.89;53.52;;
4048;Laerm;2038;51.728;6.674;2022-08-21T04:12:06;51.06;31.68;66.97;;
4048;Laerm;2038;51.728;6.674;2022-08-21T04:14:32;40.89;33.90;56.34;;
4048;Laerm;2038;51.728;6.674;2022-08-21T04:16:59;40.25;33.44;51.06;;
4048;Laerm;2038;51.728;6.674;2022-08-21T04:19:25;46.99;33.90;63.03;;
4048;Laerm;2038;51.728;6.674;2022-08-21T04:21:51;38.94;33.90;48.99;;
4048;Laerm;2038;51.728;6.674;2022-08-21T04:24:18;42.18;33.97;59.00;;
4048;Laerm;2038;51.728;6.674;2022-08-21T04:26:45;39.33;33.90;55.27;;
4048;Laerm;2038;51.728;6.674;2022-08-21T04:29:11;38.67;32.35;49.72;;
4048;Laerm;2038;51.728;6.674;2022-08-21T04:31:37;45.71;32.93;61.30;;
4048;Laerm;2038;51.728;6.674;2022-08-21T04:34:05;38.66;32.93;46.78;;
4048;Laerm;2038;51.728;6.674;2022-08-21T04:36:33;43.80;34.31;57.95;;
4048;Laerm;2038;51.728;6.674;2022-08-21T04:38:59;39.59;33.90;55.81;;
4048;Laerm;2038;51.728;6.674;2022-08-21T04:41:25;38.82;33.90;51.05;;
4048;Laerm;2038;51.728;6.674;2022-08-21T04:43:52;46.52;33.44;64.14;;
4048;Laerm;2038;51.728;6.674;2022-08-21T04:46:18;42.18;33.44;59.67;;
4048;Laerm;2038;51.728;6.674;2022-08-21T04:48:44;41.63;34.31;55.65;;
4048;Laerm;2038;51.728;6.674;2022-08-21T04:51:24;44.11;33.44;61.00;;
4048;Laerm;2038;51.728;6.674;2022-08-21T04:53:58;49.21;33.44;67.07;;
4048;Laerm;2038;51.728;6.674;2022-08-21T04:56:44;39.64;32.93;56.65;;
4048;Laerm;2038;51.728;6.674;2022-08-21T04:59:25;43.93;35.66;56.11;;
4048;Laerm;2038;51.728;6.674;2022-08-21T05:01:54;41.98;33.44;55.18;;
4048;Laerm;2038;51.728;6.674;2022-08-21T05:04:26;52.49;34.69;74.99;;
4048;Laerm;2038;51.728;6.674;2022-08-21T05:06:57;48.51;35.94;62.60;;
4048;Laerm;2038;51.728;6.674;2022-08-21T05:09:26;50.44;35.59;63.21;;
4048;Laerm;2038;51.728;6.674;2022-08-21T05:11:54;49.05;34.31;71.44;;
4048;Laerm;2038;51.728;6.674;2022-08-21T05:14:20;42.87;35.66;67.52;;
4048;Laerm;2038;51.728;6.674;2022-08-21T05:16:47;39.23;35.36;45.88;;
4048;Laerm;2038;51.728;6.674;2022-08-21T05:19:14;39.15;34.31;52.08;;
4048;Laerm;2038;51.728;6.674;2022-08-21T05:21:43;47.77;35.04;63.96;;
4048;Laerm;2038;51.728;6.674;2022-08-21T05:24:10;47.03;35.04;63.52;;
4048;Laerm;2038;51.728;6.674;2022-08-21T05:26:37;45.85;33.44;62.31;;
4048;Laerm;2038;51.728;6.674;2022-08-21T05:29:04;39.73;33.90;54.83;;
4048;Laerm;2038;51.728;6.674;2022-08-21T05:31:31;39.62;33.44;51.35;;
4048;Laerm;2038;51.728;6.674;2022-08-21T05:33:57;44.48;35.94;63.81;;
4048;Laerm;2038;51.728;6.674;2022-08-21T05:36:23;43.03;35.66;64.49;;
4048;Laerm;2038;51.728;6.674;2022-08-21T05:38:50;45.10;35.66;59.26;;
4048;Laerm;2038;51.728;6.674;2022-08-21T05:41:16;44.58;36.91;60.78;;
4048;Laerm;2038;51.728;6.674;2022-08-21T05:43:43;44.60;35.36;63.15;;
4048;Laerm;2038;51.728;6.674;2022-08-21T05:46:09;40.27;35.36;52.45;;
4048;Laerm;2038;51.728;6.674;2022-08-21T05:48:36;39.59;33.90;56.01;;
4048;Laerm;2038;51.728;6.674;2022-08-21T05:51:13;39.66;34.69;56.15;;
4048;Laerm;2038;51.728;6.674;2022-08-21T05:53:41;48.47;34.69;63.67;;
4048;Laerm;2038;51.728;6.674;2022-08-21T05:56:09;43.53;34.69;60.00;;
4048;Laerm;2038;51.728;6.674;2022-08-21T05:58:35;45.27;34.31;59.19;;
4048;Laerm;2038;51.728;6.674;2022-08-21T06:01:03;41.01;36.77;57.63;;
4048;Laerm;2038;51.728;6.674;2022-08-21T06:03:34;45.49;36.20;59.51;;
4048;Laerm;2038;51.728;6.674;2022-08-21T06:06:02;46.41;37.52;62.64;;
4048;Laerm;2038;51.728;6.674;2022-08-21T06:08:29;48.07;38.21;63.15;;
4048;Laerm;2038;51.728;6.674;2022-08-21T06:10:58;45.67;37.32;61.44;;
4048;Laerm;2038;51.728;6.674;2022-08-21T06:13:26;53.53;38.05;70.64;;
4048;Laerm;2038;51.728;6.674;2022-08-21T06:16:11;45.74;37.70;63.17;;
4048;Laerm;2038;51.728;6.674;2022-08-21T06:18:39;48.56;38.37;62.84;;
4048;Laerm;2038;51.728;6.674;2022-08-21T06:21:06;49.71;37.52;65.05;;
4048;Laerm;2038;51.728;6.674;2022-08-21T06:23:34;45.75;38.21;61.25;;
4048;Laerm;2038;51.728;6.674;2022-08-21T06:26:03;43.51;37.70;60.17;;
4048;Laerm;2038;51.728;6.674;2022-08-21T06:28:31;52.42;38.21;69.76;;
4048;Laerm;2038;51.728;6.674;2022-08-21T06:30:58;45.59;37.88;64.53;;
4048;Laerm;2038;51.728;6.674;2022-08-21T06:33:24;48.40;38.52;61.38;;
4048;Laerm;2038;51.728;6.674;2022-08-21T06:35:51;48.94;37.88;64.53;;
4048;Laerm;2038;51.728;6.674;2022-08-21T06:38:17;51.89;38.81;70.84;;
4048;Laerm;2038;51.728;6.674;2022-08-21T06:40:44;42.40;38.37;50.99;;
4048;Laerm;2038;51.728;6.674;2022-08-21T06:43:15;49.85;37.12;67.62;;
4048;Laerm;2038;51.728;6.674;2022-08-21T06:45:42;45.89;37.52;62.85;;
4048;Laerm;2038;51.728;6.674;2022-08-21T06:48:09;44.98;36.69;63.26;;
4048;Laerm;2038;51.728;6.674;2022-08-21T06:50:36;45.78;37.88;59.81;;
4048;Laerm;2038;51.728;6.674;2022-08-21T06:53:12;46.62;38.37;64.76;;
4048;Laerm;2038;51.728;6.674;2022-08-21T06:55:40;50.72;38.21;63.87;;
4048;Laerm;2038;51.728;6.674;2022-08-21T06:58:08;49.47;37.70;62.86;;
4048;Laerm;2038;51.728;6.674;2022-08-21T07:00:39;55.79;37.12;77.64;;
4048;Laerm;2038;51.728;6.674;2022-08-21T07:03:06;40.98;36.91;53.79;;
4048;Laerm;2038;51.728;6.674;2022-08-21T07:05:32;49.93;36.45;60.60;;
4048;Laerm;2038;51.728;6.674;2022-08-21T07:07:59;47.49;38.21;63.94;;
4048;Laerm;2038;51.728;6.674;2022-08-21T07:10:27;46.83;37.52;61.88;;
4048;Laerm;2038;51.728;6.674;2022-08-21T07:12:54;48.90;37.88;62.79;;
4048;Laerm;2038;51.728;6.674;2022-08-21T07:15:21;50.92;38.05;65.49;;
4048;Laerm;2038;51.728;6.674;2022-08-21T07:17:47;44.66;36.45;62.45;;
4048;Laerm;2038;51.728;6.674;2022-08-21T07:20:13;51.32;37.12;65.41;;
4048;Laerm;2038;51.728;6.674;2022-08-21T07:22:40;53.49;37.70;68.55;;
4048;Laerm;2038;51.728;6.674;2022-08-21T07:25:07;55.19;38.21;75.67;;
4048;Laerm;2038;51.728;6.674;2022-08-21T07:27:34;53.42;39.46;66.83;;
4048;Laerm;2038;51.728;6.674;2022-08-21T07:30:00;51.56;40.03;66.40;;
4048;Laerm;2038;51.728;6.674;2022-08-21T07:32:26;54.60;41.06;66.51;;
4048;Laerm;2038;51.728;6.674;2022-08-21T07:34:52;49.16;39.92;61.35;;
4048;Laerm;2038;51.728;6.674;2022-08-21T07:37:19;54.22;41.75;71.81;;
4048;Laerm;2038;51.728;6.674;2022-08-21T07:39:45;47.76;40.33;60.78;;
4048;Laerm;2038;51.728;6.674;2022-08-21T07:42:15;50.45;41.61;60.91;;
4048;Laerm;2038;51.728;6.674;2022-08-21T07:44:42;53.49;40.98;66.52;;
4048;Laerm;2038;51.728;6.674;2022-08-21T07:47:09;51.68;41.75;66.18;;
4048;Laerm;2038;51.728;6.674;2022-08-21T07:49:35;49.15;39.34;63.26;;
4048;Laerm;2038;51.728;6.674;2022-08-21T07:52:02;51.82;40.13;63.40;;
4048;Laerm;2038;51.728;6.674;2022-08-21T07:54:28;51.81;39.92;63.52;;
4048;Laerm;2038;51.728;6.674;2022-08-21T07:56:54;49.74;40.03;61.79;;
4048;Laerm;2038;51.728;6.674;2022-08-21T07:59:20;51.34;39.70;65.23;;
4048;Laerm;2038;51.728;6.674;2022-08-21T08:01:47;56.50;39.70;74.41;;
4048;Laerm;2038;51.728;6.674;2022-08-21T08:04:13;53.88;39.46;68.00;;
4048;Laerm;2038;51.728;6.674;2022-08-21T08:06:41;56.25;38.95;72.81;;
4048;Laerm;2038;51.728;6.674;2022-08-21T08:09:08;55.02;39.58;69.82;;
4048;Laerm;2038;51.728;6.674;2022-08-21T08:11:42;52.29;37.32;64.95;;
4048;Laerm;2038;51.728;6.674;2022-08-21T08:14:10;47.35;37.70;63.40;;
4048;Laerm;2038;51.728;6.674;2022-08-21T08:16:36;60.37;39.08;73.54;;
4048;Laerm;2038;51.728;6.674;2022-08-21T08:19:03;49.67;36.91;63.75;;
4048;Laerm;2038;51.728;6.674;2022-08-21T08:21:29;50.63;36.91;67.64;;
4048;Laerm;2038;51.728;6.674;2022-08-21T08:23:56;48.47;37.32;61.91;;
4048;Laerm;2038;51.728;6.674;2022-08-21T08:26:22;45.12;39.08;59.45;;
4048;Laerm;2038;51.728;6.674;2022-08-21T08:28:48;50.96;38.67;63.03;;
4048;Laerm;2038;51.728;6.674;2022-08-21T08:31:14;52.56;38.67;67.80;;
4048;Laerm;2038;51.728;6.674;2022-08-21T08:33:41;58.89;37.70;75.02;;
4048;Laerm;2038;51.728;6.674;2022-08-21T08:36:17;52.05;36.91;67.24;;
4048;Laerm;2038;51.728;6.674;2022-08-21T08:38:43;50.48;39.08;62.62;;
4048;Laerm;2038;51.728;6.674;2022-08-21T08:41:18;60.32;40.71;76.29;;
4048;Laerm;2038;51.728;6.674;2022-08-21T08:44:00;59.38;41.53;75.47;;
4048;Laerm;2038;51.728;6.674;2022-08-21T08:46:50;52.96;38.95;68.21;;
4048;Laerm;2038;51.728;6.674;2022-08-21T08:50:06;56.90;37.70;75.47;;
4048;Laerm;2038;51.728;6.674;2022-08-21T08:52:45;52.88;37.12;75.85;;
4048;Laerm;2038;51.728;6.674;2022-08-21T08:55:19;48.97;38.05;61.94;;
4048;Laerm;2038;51.728;6.674;2022-08-21T08:57:49;56.00;39.21;71.63;;
4048;Laerm;2038;51.728;6.674;2022-08-21T09:00:21;53.83;38.05;70.42;;
4048;Laerm;2038;51.728;6.674;2022-08-21T09:02:56;49.68;37.88;63.36;;
4048;Laerm;2038;51.728;6.674;2022-08-21T09:05:49;49.53;38.67;62.47;;
4048;Laerm;2038;51.728;6.674;2022-08-21T09:08:48;53.81;38.81;66.90;;
4048;Laerm;2038;51.728;6.674;2022-08-21T09:11:40;49.97;37.32;66.44;;
4048;Laerm;2038;51.728;6.674;2022-08-21T09:14:27;51.29;35.94;64.86;;
4048;Laerm;2038;51.728;6.674;2022-08-21T09:17:18;52.25;37.52;65.72;;
4048;Laerm;2038;51.728;6.674;2022-08-21T09:26:23;51.46;37.53;68.46;;
4048;Laerm;2038;51.728;6.674;2022-08-21T09:28:59;52.60;38.37;63.87;;
4048;Laerm;2038;51.728;6.674;2022-08-21T09:31:34;46.83;39.08;62.69;;
4048;Laerm;2038;51.728;6.674;2022-08-21T09:34:07;54.20;39.34;67.89;;
4048;Laerm;2038;51.728;6.674;2022-08-21T09:36:47;54.53;38.81;69.51;;
4048;Laerm;2038;51.728;6.674;2022-08-21T09:39:30;52.21;39.70;66.53;;
4048;Laerm;2038;51.728;6.674;2022-08-21T09:42:04;55.15;40.62;70.37;;
4048;Laerm;2038;51.728;6.674;2022-08-21T09:44:36;53.14;39.08;66.73;;
4048;Laerm;2038;51.728;6.674;2022-08-21T09:47:07;53.07;38.21;64.52;;
4048;Laerm;2038;51.728;6.674;2022-08-21T09:49:38;60.27;40.03;79.61;;
4048;Laerm;2038;51.728;6.674;2022-08-21T09:52:19;51.61;40.23;64.66;;
4048;Laerm;2038;51.728;6.674;2022-08-21T09:54:52;53.30;38.67;69.74;;
4048;Laerm;2038;51.728;6.674;2022-08-21T09:57:28;54.44;37.32;72.23;;
4048;Laerm;2038;51.728;6.674;2022-08-21T10:00:33;52.81;37.88;69.08;;
4048;Laerm;2038;51.728;6.674;2022-08-21T10:03:18;52.71;40.71;67.75;;
4048;Laerm;2038;51.728;6.674;2022-08-21T10:06:03;49.96;37.12;67.82;;
4048;Laerm;2038;51.728;6.674;2022-08-21T10:08:33;52.73;37.12;66.39;;
4048;Laerm;2038;51.728;6.674;2022-08-21T10:11:13;51.69;38.67;63.85;;
4048;Laerm;2038;51.728;6.674;2022-08-21T10:14:01;53.02;37.88;68.36;;
4048;Laerm;2038;51.728;6.674;2022-08-21T10:17:04;51.67;38.52;64.13;;
4048;Laerm;2038;51.728;6.674;2022-08-21T10:20:04;52.01;38.18;66.55;;
4048;Laerm;2038;51.728;6.674;2022-08-21T10:26:05;55.76;38.95;70.90;;
4048;Laerm;2038;51.728;6.674;2022-08-21T10:46:15;52.28;37.52;67.66;;
4048;Laerm;2038;51.728;6.674;2022-08-21T10:48:54;51.32;38.37;67.12;;
4048;Laerm;2038;51.728;6.674;2022-08-21T10:56:35;53.08;40.53;64.78;;
4048;Laerm;2038;51.728;6.674;2022-08-21T10:59:36;53.60;39.08;67.01;;
4048;Laerm;2038;51.728;6.674;2022-08-21T11:02:32;52.76;38.05;67.60;;
4048;Laerm;2038;51.728;6.674;2022-08-21T11:05:30;54.45;40.53;69.78;;
4048;Laerm;2038;51.728;6.674;2022-08-21T11:08:09;55.25;38.99;70.36;;
4048;Laerm;2038;51.728;6.674;2022-08-21T11:11:01;53.09;38.95;66.31;;
4048;Laerm;2038;51.728;6.674;2022-08-21T11:13:45;54.40;39.92;71.33;;
4048;Laerm;2038;51.728;6.674;2022-08-21T11:16:41;58.50;37.70;75.34;;
4048;Laerm;2038;51.728;6.674;2022-08-21T11:19:24;52.12;37.12;66.46;;
4048;Laerm;2038;51.728;6.674;2022-08-21T11:27:34;57.06;38.37;70.81;;
4048;Laerm;2038;51.728;6.674;2022-08-21T11:30:03;54.56;37.70;67.60;;
4048;Laerm;2038;51.728;6.674;2022-08-21T11:33:02;54.43;38.05;69.55;;
4048;Laerm;2038;51.728;6.674;2022-08-21T11:38:28;49.64;36.45;63.09;;
4048;Laerm;2038;51.728;6.674;2022-08-21T11:41:36;53.47;37.88;67.41;;
4048;Laerm;2038;51.728;6.674;2022-08-21T11:50:13;51.55;39.58;64.47;;
4048;Laerm;2038;51.728;6.674;2022-08-21T11:56:00;61.68;40.71;82.34;;
4048;Laerm;2038;51.728;6.674;2022-08-21T11:58:45;61.65;39.70;80.76;;
4048;Laerm;2038;51.728;6.674;2022-08-21T12:01:25;60.70;40.23;74.29;;
4048;Laerm;2038;51.728;6.674;2022-08-21T12:04:02;48.36;36.69;63.32;;
4048;Laerm;2038;51.728;6.674;2022-08-21T12:06:35;51.66;38.37;62.90;;
4048;Laerm;2038;51.728;6.674;2022-08-21T12:09:10;53.98;37.12;;;
4048;Laerm;2038;51.728;6.674;2022-08-21T12:12:30;52.74;36.20;67.86;;
4048;Laerm;2038;51.728;6.674;2022-08-21T12:18:05;58.26;40.23;77.37;;
4048;Laerm;2038;51.728;6.674;2022-08-21T12:21:02;52.65;40.23;75.19;;
4048;Laerm;2038;51.728;6.674;2022-08-21T12:23:43;52.94;38.52;65.99;;
4048;Laerm;2038;51.728;6.674;2022-08-21T12:26:34;56.45;36.91;72.79;;
4048;Laerm;2038;51.728;6.674;2022-08-21T12:29:32;54.95;37.12;68.69;;
4048;Laerm;2038;51.728;6.674;2022-08-21T12:34:47;50.07;36.69;63.04;;
4048;Laerm;2038;51.728;6.674;2022-08-21T12:37:40;51.41;36.20;63.71;;
4048;Laerm;2038;51.728;6.674;2022-08-21T12:40:42;53.88;37.53;67.68;;
4048;Laerm;2038;51.728;6.674;2022-08-21T12:43:36;52.26;39.81;67.81;;
4048;Laerm;2038;51.728;6.674;2022-08-21T12:46:04;52.99;39.46;70.21;;
4048;Laerm;2038;51.728;6.674;2022-08-21T12:48:54;56.54;38.67;71.38;;
4048;Laerm;2038;51.728;6.674;2022-08-21T12:54:44;51.58;38.52;64.39;;
4048;Laerm;2038;51.728;6.674;2022-08-21T12:57:29;53.20;40.13;62.83;;
4048;Laerm;2038;51.728;6.674;2022-08-21T13:00:00;49.27;37.88;63.53;;
4048;Laerm;2038;51.728;6.674;2022-08-21T13:02:33;57.61;38.52;72.19;;
4048;Laerm;2038;51.728;6.674;2022-08-21T13:05:07;53.43;38.81;67.57;;
4048;Laerm;2038;51.728;6.674;2022-08-21T13:07:38;55.32;39.08;70.14;;
4048;Laerm;2038;51.728;6.674;2022-08-21T13:10:31;58.10;40.71;75.60;;
4048;Laerm;2038;51.728;6.674;2022-08-21T13:13:21;59.53;37.12;82.45;;
4048;Laerm;2038;51.728;6.674;2022-08-21T13:15:48;58.60;37.53;74.18;;
4048;Laerm;2038;51.728;6.674;2022-08-21T13:21:17;57.58;38.67;77.27;;
4048;Laerm;2038;51.728;6.674;2022-08-21T13:23:43;54.05;39.21;72.08;;
4048;Laerm;2038;51.728;6.674;2022-08-21T13:26:21;53.89;39.08;67.91;;
4048;Laerm;2038;51.728;6.674;2022-08-21T13:28:49;60.05;40.13;79.34;;
4048;Laerm;2038;51.728;6.674;2022-08-21T13:31:23;54.84;37.52;72.10;;
4048;Laerm;2038;51.728;6.674;2022-08-21T13:33:51;52.22;37.32;65.68;;
4048;Laerm;2038;51.728;6.674;2022-08-21T13:36:34;54.05;36.69;70.78;;
4048;Laerm;2038;51.728;6.674;2022-08-21T13:39:04;54.68;38.52;71.25;;
4048;Laerm;2038;51.728;6.674;2022-08-21T13:41:36;53.50;41.61;67.14;;
4048;Laerm;2038;51.728;6.674;2022-08-21T13:44:34;63.42;39.58;80.11;;
4048;Laerm;2038;51.728;6.674;2022-08-21T13:47:04;57.63;39.92;73.56;;
4048;Laerm;2038;51.728;6.674;2022-08-21T13:49:36;49.63;37.70;62.83;;
4048;Laerm;2038;51.728;6.674;2022-08-21T13:52:05;57.72;38.52;75.44;;
4048;Laerm;2038;51.728;6.674;2022-08-21T13:54:42;54.29;37.70;69.58;;
4048;Laerm;2038;51.728;6.674;2022-08-21T13:57:39;54.01;37.70;66.46;;
4048;Laerm;2038;51.728;6.674;2022-08-21T14:00:19;55.38;37.12;75.75;;
4048;Laerm;2038;51.728;6.674;2022-08-21T14:02:50;54.40;40.27;70.95;;
4048;Laerm;2038;51.728;6.674;2022-08-21T14:05:27;57.53;37.32;75.93;;
4048;Laerm;2038;51.728;6.674;2022-08-21T14:08:11;57.67;38.67;75.25;;
4048;Laerm;2038;51.728;6.674;2022-08-21T14:10:48;52.08;39.68;63.60;;
4048;Laerm;2038;51.728;6.674;2022-08-21T14:13:34;53.80;38.37;68.57;;
4048;Laerm;2038;51.728;6.674;2022-08-21T14:18:47;52.71;36.20;71.71;;
4048;Laerm;2038;51.728;6.674;2022-08-21T14:21:24;53.56;36.45;70.26;;
4048;Laerm;2038;51.728;6.674;2022-08-21T14:24:11;57.94;37.32;71.03;;
4048;Laerm;2038;51.728;6.674;2022-08-21T14:27:05;50.41;37.70;63.74;;
4048;Laerm;2038;51.728;6.674;2022-08-21T14:29:40;55.46;38.99;70.25;;
4048;Laerm;2038;51.728;6.674;2022-08-21T14:32:21;52.50;38.21;64.13;;
4048;Laerm;2038;51.728;6.674;2022-08-21T14:34:48;52.03;38.47;65.97;;
4048;Laerm;2038;51.728;6.674;2022-08-21T14:37:14;48.91;37.52;62.13;;
4048;Laerm;2038;51.728;6.674;2022-08-21T14:39:40;54.11;37.70;74.14;;
4048;Laerm;2038;51.728;6.674;2022-08-21T14:42:07;77.70;39.70;98.00;;
4048;Laerm;2038;51.728;6.674;2022-08-21T14:44:34;56.44;39.08;67.47;;
4048;Laerm;2038;51.728;6.674;2022-08-21T14:47:00;59.83;38.37;76.65;;
4048;Laerm;2038;51.728;6.674;2022-08-21T14:49:28;54.53;38.37;68.04;;
4048;Laerm;2038;51.728;6.674;2022-08-21T14:51:56;50.15;36.20;65.67;;
4048;Laerm;2038;51.728;6.674;2022-08-21T14:54:26;51.44;36.69;62.71;;
4048;Laerm;2038;51.728;6.674;2022-08-21T14:56:52;53.79;37.12;70.06;;
4048;Laerm;2038;51.728;6.674;2022-08-21T14:59:21;49.22;37.32;61.72;;
4048;Laerm;2038;51.728;6.674;2022-08-21T15:01:47;53.55;38.87;71.71;;
4048;Laerm;2038;51.728;6.674;2022-08-21T15:04:14;52.49;37.32;66.33;;
4048;Laerm;2038;51.728;6.674;2022-08-21T15:06:40;51.23;36.91;67.62;;
4048;Laerm;2038;51.728;6.674;2022-08-21T15:09:06;50.99;36.69;62.84;;
4048;Laerm;2038;51.728;6.674;2022-08-21T15:11:34;51.24;38.37;65.64;;
4048;Laerm;2038;51.728;6.674;2022-08-21T15:14:07;53.04;36.45;67.74;;
4048;Laerm;2038;51.728;6.674;2022-08-21T15:16:35;53.34;38.05;67.91;;
4048;Laerm;2038;51.728;6.674;2022-08-21T15:19:01;55.38;43.19;69.15;;
4048;Laerm;2038;51.728;6.674;2022-08-21T15:21:27;53.43;38.21;65.93;;
4048;Laerm;2038;51.728;6.674;2022-08-21T15:23:53;49.65;38.52;62.20;;
4048;Laerm;2038;51.728;6.674;2022-08-21T15:26:22;49.93;37.88;62.72;;
4048;Laerm;2038;51.728;6.674;2022-08-21T15:28:49;56.97;37.32;73.87;;
4048;Laerm;2038;51.728;6.674;2022-08-21T15:31:15;50.27;38.95;62.06;;
4048;Laerm;2038;51.728;6.674;2022-08-21T15:33:41;52.97;37.32;64.20;;
4048;Laerm;2038;51.728;6.674;2022-08-21T15:36:07;54.66;37.88;66.97;;
4048;Laerm;2038;51.728;6.674;2022-08-21T15:38:34;50.67;38.37;63.47;;
4048;Laerm;2038;51.728;6.674;2022-08-21T15:41:03;49.27;37.52;61.79;;
4048;Laerm;2038;51.728;6.674;2022-08-21T15:43:37;54.38;41.06;65.58;;